Time;durP1;ratioP1;P1;durP2;ratioP2;P2;SDS_P1;SDS_P2;PMS_P1;PMS_P2;Temp;Humidity;BMP_temperature;BMP_pressure;BME280_temperature;BME280_humidity;BME280_pressure;Samples;Min_cycle;Max_cycle;Signal;HPM_P1;HPM_P2
2023/01/27 00:01:28;;;;;;;;;3.50;3.50;;;;;7.78;69.77;101998.78;6277358;22;45253;-85
2023/01/27 00:03:53;;;;;;;;;6.75;4.25;;;;;7.78;69.78;101991.69;6249472;22;45278;-85
2023/01/27 00:06:19;;;;;;;;;3.75;2.50;;;;;7.77;69.97;101984.59;6276776;22;45194;-85
2023/01/27 00:08:44;;;;;;;;;3.00;3.00;;;;;7.86;69.68;101988.16;6250178;22;45693;-85
2023/01/27 00:13:54;;;;;;;;;4.25;3.00;;;;;7.77;69.11;101981.06;6277045;22;45337;-85
2023/01/27 00:16:19;;;;;;;;;2.00;2.00;;;;;7.73;68.98;101977.50;6249346;22;46766;-85
2023/01/27 00:18:45;;;;;;;;;6.50;4.25;;;;;7.71;68.92;101959.81;6278349;22;45173;-84
2023/01/27 00:26:39;;;;;;;;;4.00;4.00;;;;;7.75;68.84;101973.09;6277339;22;45649;-85
2023/01/27 00:29:04;;;;;;;;;6.25;6.00;;;;;7.85;68.74;101983.69;6277300;22;45214;-85
2023/01/27 00:34:13;;;;;;;;;4.25;3.00;;;;;7.80;68.63;101978.38;6276668;22;45287;-85
2023/01/27 00:36:40;;;;;;;;;4.25;4.25;;;;;7.72;68.76;101965.13;6248824;22;47262;-85
2023/01/27 00:39:08;;;;;;;;;7.50;5.50;;;;;7.82;69.03;101975.72;6249612;22;45502;-85
2023/01/27 00:41:33;;;;;;;;;7.75;7.75;;;;;7.77;68.60;101957.16;6276322;22;45210;-85
2023/01/27 00:44:00;;;;;;;;;12.50;6.75;;;;;7.86;68.42;101974.84;6249571;22;45265;-85
2023/01/27 00:46:25;;;;;;;;;6.75;6.75;;;;;7.89;68.36;101977.50;6277219;22;45427;-85
2023/01/27 00:48:51;;;;;;;;;7.50;5.00;;;;;7.83;68.53;101969.53;6250103;22;45586;-85
2023/01/27 00:51:18;;;;;;;;;4.50;4.50;;;;;7.72;68.89;101953.59;6277209;22;45230;-85
2023/01/27 00:53:44;;;;;;;;;4.25;4.25;;;;;7.87;68.62;101980.16;6277416;22;45453;-85
2023/01/27 00:56:10;;;;;;;;;5.75;3.00;;;;;7.92;68.57;101982.81;6277591;22;45616;-84
2023/01/27 00:58:35;;;;;;;;;4.25;4.25;;;;;7.81;68.65;101966.88;6279128;22;45264;-85
2023/01/27 01:01:06;;;;;;;;;7.50;2.75;;;;;7.89;68.74;101982.81;6250009;22;45120;-85
2023/01/27 01:03:34;;;;;;;;;4.00;4.00;;;;;7.64;68.75;101935.00;6249896;22;45368;-85
2023/01/27 01:06:02;;;;;;;;;3.00;3.00;;;;;7.51;68.62;101915.53;6248423;22;48232;-85
2023/01/27 01:08:30;;;;;;;;;3.75;2.75;;;;;7.77;68.65;101957.16;6275811;22;45523;-85
2023/01/27 01:10:56;;;;;;;;;3.00;3.00;;;;;7.85;68.34;101967.75;6276671;22;45167;-85
2023/01/27 01:13:22;;;;;;;;;2.75;2.75;;;;;7.89;68.48;101974.84;6249381;22;46041;-85
2023/01/27 01:15:47;;;;;;;;;7.50;2.50;;;;;7.75;68.59;101946.50;6249084;22;48110;-85
2023/01/27 01:18:13;;;;;;;;;3.00;2.75;;;;;7.89;68.49;101978.38;6276533;22;45212;-85
2023/01/27 01:20:42;;;;;;;;;5.50;4.00;;;;;7.88;68.51;101971.28;6276737;22;45336;-85
2023/01/27 01:23:08;;;;;;;;;2.50;2.00;;;;;7.66;68.41;101935.88;6249685;22;45236;-85
2023/01/27 01:25:34;;;;;;;;;2.00;2.00;;;;;7.76;68.37;101958.91;6277311;22;45999;-85
2023/01/27 01:28:01;;;;;;;;;7.75;2.50;;;;;7.52;68.22;101933.25;6249400;22;45910;-85
2023/01/27 01:30:27;;;;;;;;;3.00;2.75;;;;;7.46;68.21;101929.72;6276758;22;45255;-85
2023/01/27 01:32:53;;;;;;;;;4.25;2.00;;;;;7.59;68.38;101955.38;6249784;22;45300;-85
2023/01/27 01:35:20;;;;;;;;;7.00;4.50;;;;;7.69;68.65;101970.44;6249768;22;47168;-85
2023/01/27 01:37:45;;;;;;;;;2.75;2.75;;;;;7.61;68.76;101945.63;6251463;22;45255;-85
2023/01/27 01:40:11;;;;;;;;;4.75;3.50;;;;;7.61;68.36;101942.97;6251507;22;45627;-85
2023/01/27 01:42:48;;;;;;;;;2.75;2.75;;;;;7.71;68.79;101965.13;6277945;22;45514;-85
2023/01/27 01:45:32;;;;;;;;;3.00;2.00;;;;;7.73;68.91;101958.03;6250630;22;47264;-85
2023/01/27 01:48:24;;;;;;;;;2.25;2.25;;;;;7.73;68.95;101955.38;6278213;22;45183;-85
2023/01/27 01:51:16;;;;;;;;;3.00;3.00;;;;;7.65;69.07;101931.47;6232607;22;45342;-84
2023/01/27 01:53:48;;;;;;;;;3.00;2.25;;;;;7.74;68.60;101946.50;6277509;22;45329;-85
2023/01/27 01:56:18;;;;;;;;;5.50;2.00;;;;;7.74;68.62;101957.16;6250723;22;46613;-84
2023/01/27 01:58:45;;;;;;;;;2.00;1.75;;;;;7.55;68.61;101930.59;6278146;22;45557;-84
2023/01/27 02:01:14;;;;;;;;;2.00;2.00;;;;;7.68;68.55;101950.03;6277437;22;45333;-85
2023/01/27 02:03:43;;;;;;;;;2.75;2.75;;;;;7.55;68.01;101927.03;6250230;22;45421;-84
2023/01/27 02:06:10;;;;;;;;;1.00;1.00;;;;;7.59;68.39;101936.78;6277209;22;45946;-84
2023/01/27 02:08:42;;;;;;;;;2.00;2.00;;;;;7.60;68.50;101939.44;6277984;22;45276;-85
2023/01/27 02:11:09;;;;;;;;;4.25;2.00;;;;;7.68;68.52;101944.72;6279339;22;45478;-85
2023/01/27 02:13:35;;;;;;;;;5.00;2.25;;;;;7.66;68.22;101943.84;6280133;22;45168;-84
2023/01/27 02:16:01;;;;;;;;;2.50;2.00;;;;;7.70;67.93;101942.06;6278230;22;45264;-84
2023/01/27 02:18:28;;;;;;;;;6.00;0.00;;;;;7.65;68.53;101939.44;6278782;22;45289;-84
2023/01/27 02:20:54;;;;;;;;;3.50;2.00;;;;;7.54;68.27;101931.47;6277102;22;45220;-84
2023/01/27 02:23:31;;;;;;;;;5.50;3.00;;;;;7.60;68.31;101934.13;6250780;22;45330;-83
2023/01/27 02:26:33;;;;;;;;;2.00;1.75;;;;;7.63;68.55;101938.53;6278208;22;45567;-85
2023/01/27 02:29:03;;;;;;;;;4.75;2.00;;;;;7.65;68.43;101938.53;6277490;22;45206;-85
2023/01/27 02:31:29;;;;;;;;;3.00;1.00;;;;;7.61;68.56;101932.34;6278042;22;45198;-85
2023/01/27 02:34:01;;;;;;;;;1.75;1.75;;;;;7.41;68.06;101904.00;6278539;22;45253;-85
2023/01/27 02:36:30;;;;;;;;;5.25;1.00;;;;;7.53;67.90;101915.53;6250425;22;46959;-86
2023/01/27 02:38:59;;;;;;;;;3.75;3.00;;;;;7.48;68.16;101911.97;6278305;22;45611;-85
2023/01/27 02:41:41;;;;;;;;;2.50;1.50;;;;;7.51;67.91;101918.19;6250582;22;45340;-85
2023/01/27 02:44:08;;;;;;;;;2.00;2.00;;;;;7.50;68.01;101905.81;6277849;22;45193;-85
2023/01/27 02:46:35;;;;;;;;;3.50;2.25;;;;;7.50;68.06;101907.53;6277937;22;45618;-85
2023/01/27 02:49:00;;;;;;;;;2.25;2.25;;;;;7.50;67.68;101918.19;6251037;22;45505;-85
2023/01/27 02:51:26;;;;;;;;;2.00;2.00;;;;;7.44;67.94;101902.25;6251635;22;45374;-85
2023/01/27 02:53:51;;;;;;;;;2.25;2.00;;;;;7.56;67.59;101918.19;6251845;22;45167;-85
2023/01/27 02:56:17;;;;;;;;;2.75;2.00;;;;;7.40;67.69;101888.06;6278330;22;45806;-85
2023/01/27 02:58:42;;;;;;;;;3.50;2.75;;;;;7.33;67.77;101887.19;6277847;22;45266;-85
2023/01/27 03:01:07;;;;;;;;;2.00;0.75;;;;;7.31;67.49;101878.34;6277131;22;45470;-85
2023/01/27 03:03:33;;;;;;;;;2.00;1.50;;;;;7.42;67.60;101903.13;6250911;22;45344;-85
2023/01/27 03:05:58;;;;;;;;;1.00;1.00;;;;;7.55;67.74;101919.06;6249399;22;48068;-86
2023/01/27 03:08:24;;;;;;;;;2.00;2.00;;;;;7.54;67.80;101909.34;6250251;22;45736;-86
2023/01/27 03:10:51;;;;;;;;;5.50;2.75;;;;;7.47;67.13;101896.91;6250351;22;45176;-85
2023/01/27 03:13:22;;;;;;;;;3.50;2.00;;;;;7.63;67.37;101917.28;6250428;22;45797;-85
2023/01/27 03:18:32;;;;;;;;;1.50;1.50;;;;;7.57;67.13;101906.69;6277812;22;45244;-85
2023/01/27 03:21:03;;;;;;;;;5.50;2.25;;;;;7.48;67.05;101891.59;6278174;22;45468;-86
2023/01/27 03:23:28;;;;;;;;;2.00;1.25;;;;;7.66;67.20;101927.03;6251158;22;45389;-85
2023/01/27 03:25:54;;;;;;;;;2.25;2.25;;;;;7.60;67.20;101915.53;6252576;22;47566;-86
2023/01/27 03:28:19;;;;;;;;;3.00;2.00;;;;;7.55;67.55;101904.03;6252815;22;45186;-86
2023/01/27 03:30:45;;;;;;;;;4.25;2.00;;;;;7.49;67.08;101890.72;6251204;22;45303;-86
2023/01/27 03:33:10;;;;;;;;;2.00;2.00;;;;;7.69;67.22;101922.59;6277851;22;45222;-86
2023/01/27 03:35:47;;;;;;;;;1.25;1.25;;;;;7.52;67.11;101892.50;6250134;22;47020;-85
2023/01/27 03:46:26;;;;;;;;;1.25;1.25;;;;;7.70;66.62;101927.03;6277797;22;45254;-85
2023/01/27 03:48:54;;;;;;;;;1.25;1.00;;;;;7.68;66.89;101911.97;6277956;22;45301;-85
2023/01/27 03:51:21;;;;;;;;;1.75;1.75;;;;;7.67;66.88;101918.16;6250575;22;45136;-85
2023/01/27 03:53:47;;;;;;;;;5.25;2.00;;;;;7.72;66.95;101916.41;6277459;22;45243;-85
2023/01/27 03:56:13;;;;;;;;;2.50;2.00;;;;;7.71;67.15;101911.97;6277991;22;45233;-85
2023/01/27 03:58:39;;;;;;;;;2.25;2.00;;;;;7.74;66.89;101920.81;6249409;22;45726;-85
2023/01/27 04:01:11;;;;;;;;;2.00;1.50;;;;;7.52;66.83;101887.19;6249927;22;45321;-85
2023/01/27 04:09:10;;;;;;;;;2.75;2.75;;;;;7.69;66.88;101921.72;6279255;22;45124;-85
2023/01/27 04:11:54;;;;;;;;;3.50;2.50;;;;;7.68;66.86;101925.25;6277647;22;45247;-86
2023/01/27 04:14:41;;;;;;;;;1.75;1.50;;;;;7.56;66.95;101891.59;6277541;22;45458;-86
2023/01/27 04:17:12;;;;;;;;;3.00;2.00;;;;;7.68;67.18;101907.53;6277079;22;45350;-85
2023/01/27 04:19:38;;;;;;;;;4.25;2.00;;;;;7.79;67.34;101923.47;6250681;22;45359;-85
2023/01/27 04:22:04;;;;;;;;;2.00;2.00;;;;;7.77;67.25;101914.63;6277098;22;45253;-85
2023/01/27 04:24:30;;;;;;;;;2.25;2.25;;;;;7.71;66.69;101904.88;6277384;22;45372;-85
2023/01/27 04:27:07;;;;;;;;;1.00;1.00;;;;;7.76;67.06;101911.06;6249888;22;47153;-86
2023/01/27 04:29:35;;;;;;;;;3.00;1.75;;;;;7.42;66.76;101868.59;6277114;22;45491;-85
2023/01/27 04:32:02;;;;;;;;;2.25;1.00;;;;;7.59;66.80;101892.47;6277352;22;45235;-85
2023/01/27 04:34:28;;;;;;;;;3.00;3.00;;;;;7.49;66.94;101874.78;6277336;22;45236;-85
2023/01/27 04:36:54;;;;;;;;;1.25;1.25;;;;;7.69;67.00;101904.00;6277325;22;45395;-86
2023/01/27 04:39:19;;;;;;;;;2.25;2.00;;;;;7.63;66.93;101895.13;6277598;22;45545;-85
2023/01/27 04:41:45;;;;;;;;;1.00;1.00;;;;;7.70;66.80;101894.22;6249874;22;45235;-85
2023/01/27 04:44:11;;;;;;;;;2.25;1.50;;;;;7.78;67.11;101911.97;6248905;22;45573;-85
2023/01/27 04:46:37;;;;;;;;;3.25;2.50;;;;;7.76;66.86;101911.06;6278086;22;45266;-85
2023/01/27 04:49:04;;;;;;;;;2.00;2.00;;;;;7.64;66.86;101884.50;6250437;22;45375;-85
2023/01/27 04:51:29;;;;;;;;;2.75;1.75;;;;;7.68;67.34;101899.53;6276754;22;45172;-86
2023/01/27 04:53:55;;;;;;;;;1.25;1.25;;;;;7.71;67.19;101909.31;6277740;22;45187;-86
2023/01/27 04:56:34;;;;;;;;;1.25;1.25;;;;;7.65;67.49;101888.94;6277245;22;45226;-85
2023/01/27 04:59:02;;;;;;;;;3.25;2.00;;;;;7.56;67.26;101880.97;6248625;22;45510;-85
2023/01/27 05:01:28;;;;;;;;;7.00;3.00;;;;;7.64;67.10;101889.81;6249499;22;45316;-85
2023/01/27 05:03:54;;;;;;;;;1.00;1.00;;;;;7.63;66.44;101887.16;6277363;22;45301;-85
2023/01/27 05:06:20;;;;;;;;;4.50;3.00;;;;;7.55;67.13;101873.88;6249303;22;47132;-85
2023/01/27 05:08:46;;;;;;;;;2.50;1.00;;;;;7.63;66.79;101889.81;6249365;22;45942;-85
2023/01/27 05:11:12;;;;;;;;;2.00;2.00;;;;;7.70;66.96;101899.53;6250911;22;45313;-85
2023/01/27 05:13:39;;;;;;;;;4.25;2.75;;;;;7.56;67.08;101868.56;6278528;22;45430;-85
2023/01/27 05:16:10;;;;;;;;;1.75;1.75;;;;;7.73;66.78;101903.06;6250560;22;47344;-85
2023/01/27 05:18:35;;;;;;;;;1.50;1.50;;;;;7.74;66.45;101896.88;6278582;22;45551;-85
2023/01/27 05:21:02;;;;;;;;;2.00;1.00;;;;;7.74;66.37;101896.88;6251091;22;45187;-85
2023/01/27 05:23:36;;;;;;;;;1.00;1.00;;;;;7.60;66.34;101880.06;6251274;22;45396;-85
2023/01/27 05:26:08;;;;;;;;;2.00;2.00;;;;;7.68;66.48;101885.38;6251347;22;48081;-85
2023/01/27 05:28:35;;;;;;;;;4.25;1.00;;;;;7.57;66.31;101866.81;6250959;22;45494;-85
2023/01/27 05:31:06;;;;;;;;;1.75;1.75;;;;;7.72;66.53;101901.31;6277958;22;45342;-85
2023/01/27 05:33:31;;;;;;;;;2.00;1.00;;;;;7.59;66.35;101878.31;6278478;22;45358;-85
2023/01/27 05:35:59;;;;;;;;;2.00;2.00;;;;;7.66;65.94;101888.03;6250597;22;47332;-85
2023/01/27 05:38:24;;;;;;;;;1.75;1.00;;;;;7.64;66.05;101888.94;6277847;22;45528;-85
2023/01/27 05:40:54;;;;;;;;;3.00;1.75;;;;;7.68;66.27;101894.22;6278205;22;45467;-86
2023/01/27 05:43:19;;;;;;;;;5.75;2.00;;;;;7.66;66.21;101892.47;6250643;22;45354;-86
2023/01/27 05:45:45;;;;;;;;;0.25;0.00;;;;;7.63;66.28;101882.72;6278147;22;46111;-85
2023/01/27 05:48:10;;;;;;;;;3.25;2.00;;;;;7.65;65.96;101888.94;6278225;22;45281;-85
2023/01/27 05:50:35;;;;;;;;;1.00;1.00;;;;;7.50;66.35;101867.69;6250925;22;45286;-85
2023/01/27 05:53:01;;;;;;;;;2.00;2.00;;;;;7.61;66.32;101887.16;6278452;22;45426;-86
2023/01/27 05:55:26;;;;;;;;;2.00;1.00;;;;;7.51;66.00;101877.44;6250909;22;48196;-85
2023/01/27 05:57:53;;;;;;;;;2.50;1.00;;;;;7.64;65.93;101897.78;6278284;22;45337;-85
2023/01/27 06:00:19;;;;;;;;;2.75;2.00;;;;;7.54;66.17;101883.63;6251148;22;45242;-86
2023/01/27 06:02:44;;;;;;;;;1.00;1.00;;;;;7.66;66.09;101904.00;6250983;22;45337;-86
2023/01/27 06:05:09;;;;;;;;;4.00;1.75;;;;;7.64;66.26;101897.78;6249534;22;48160;-85
2023/01/27 06:07:35;;;;;;;;;1.00;1.00;;;;;7.59;65.71;101891.59;6278469;22;45497;-86
2023/01/27 06:10:00;;;;;;;;;2.75;1.00;;;;;7.48;66.01;101875.66;6278458;22;45270;-85
2023/01/27 06:12:25;;;;;;;;;4.75;3.00;;;;;7.51;65.92;101880.97;6277704;22;45170;-86
2023/01/27 06:14:52;;;;;;;;;1.25;1.25;;;;;7.51;65.71;101880.09;6277525;22;45148;-86
2023/01/27 06:17:17;;;;;;;;;2.00;2.00;;;;;7.56;65.62;101888.94;6250708;22;45608;-86
2023/01/27 06:19:43;;;;;;;;;2.75;1.50;;;;;7.40;65.84;101867.72;6278211;22;45173;-86
2023/01/27 06:22:08;;;;;;;;;3.50;3.00;;;;;7.34;65.43;101862.41;6249967;22;45394;-85
2023/01/27 06:24:33;;;;;;;;;1.75;0.75;;;;;7.63;65.89;101924.38;6250338;22;48214;-85
2023/01/27 06:26:59;;;;;;;;;2.25;2.00;;;;;7.52;65.76;101888.06;6250131;22;45229;-86
2023/01/27 06:29:24;;;;;;;;;5.00;1.25;;;;;7.37;65.91;101853.56;6250320;22;45278;-86
2023/01/27 06:31:50;;;;;;;;;3.25;0.75;;;;;7.60;65.34;101898.66;6276622;22;45404;-79
2023/01/27 06:34:15;;;;;;;;;2.25;2.00;;;;;7.49;65.36;101872.13;6250484;22;47284;-79
2023/01/27 06:36:40;;;;;;;;;2.00;2.00;;;;;7.59;65.44;101903.13;6250533;22;45307;-79
2023/01/27 06:39:06;;;;;;;;;3.50;1.75;;;;;7.57;65.49;101910.22;6278508;22;45370;-79
2023/01/27 06:41:31;;;;;;;;;2.50;2.00;;;;;7.58;65.81;101905.78;6277474;22;45300;-80
2023/01/27 06:43:56;;;;;;;;;3.25;2.00;;;;;7.65;65.06;101915.53;6250138;22;47212;-80
2023/01/27 06:46:22;;;;;;;;;2.50;1.25;;;;;7.63;65.07;101917.28;6277930;22;45239;-79
2023/01/27 06:48:47;;;;;;;;;1.00;1.00;;;;;7.52;65.06;101885.41;6278216;22;45388;-79
2023/01/27 06:51:12;;;;;;;;;3.75;2.00;;;;;7.62;65.34;101899.59;6250721;22;45431;-79
2023/01/27 06:53:38;;;;;;;;;6.00;2.75;;;;;7.58;65.42;101888.06;6278673;22;45419;-79
2023/01/27 06:56:03;;;;;;;;;1.75;1.25;;;;;7.57;65.14;101899.59;6250047;22;45477;-79
2023/01/27 06:58:29;;;;;;;;;2.00;2.00;;;;;7.64;65.35;101899.59;6275861;22;45443;-79
2023/01/27 07:00:55;;;;;;;;;2.00;2.00;;;;;7.76;65.01;101918.16;6249585;22;45140;-79
2023/01/27 07:03:21;;;;;;;;;3.00;1.50;;;;;7.72;65.25;101914.63;6278097;22;45202;-77
2023/01/27 07:05:47;;;;;;;;;2.00;1.50;;;;;7.54;65.15;101891.59;6248647;22;45349;-79
2023/01/27 07:08:12;;;;;;;;;3.00;2.00;;;;;7.46;64.78;101876.56;6276978;22;45234;-80
2023/01/27 07:10:38;;;;;;;;;1.50;1.50;;;;;7.33;65.21;101867.72;6248692;22;45498;-79
2023/01/27 07:13:04;;;;;;;;;6.00;2.00;;;;;7.44;65.37;101895.16;6248361;22;47029;-79
2023/01/27 07:15:31;;;;;;;;;4.25;2.00;;;;;7.33;65.08;101873.03;6277362;22;45651;-79
2023/01/27 07:18:00;;;;;;;;;5.50;2.00;;;;;7.52;65.11;101905.81;6277641;22;45401;-79
2023/01/27 07:20:31;;;;;;;;;2.50;2.25;;;;;7.50;65.01;101904.88;6277200;22;45208;-82
2023/01/27 07:23:01;;;;;;;;;2.25;2.25;;;;;7.64;65.06;101934.13;6250182;22;47246;-80
2023/01/27 07:25:32;;;;;;;;;3.25;3.00;;;;;7.47;64.79;101907.53;6277588;22;45364;-79
2023/01/27 07:27:59;;;;;;;;;2.50;2.00;;;;;7.61;64.87;101940.31;6277361;22;45298;-79
2023/01/27 07:30:25;;;;;;;;;4.00;3.00;;;;;7.65;65.01;101946.50;6277473;22;45212;-79
2023/01/27 07:32:53;;;;;;;;;4.75;2.50;;;;;7.67;64.87;101944.72;6277482;22;45209;-79
2023/01/27 07:35:18;;;;;;;;;2.50;2.50;;;;;7.55;64.97;101930.59;6277168;22;45606;-79
2023/01/27 07:37:43;;;;;;;;;2.00;2.00;;;;;7.63;65.19;101932.34;6250695;22;45195;-79
2023/01/27 07:40:09;;;;;;;;;3.25;3.00;;;;;7.65;64.84;101939.44;6249849;22;45440;-80
2023/01/27 07:42:35;;;;;;;;;8.25;5.50;;;;;7.68;64.98;101934.09;6276130;22;46257;-79
2023/01/27 07:45:00;;;;;;;;;3.25;2.50;;;;;7.67;64.91;101935.00;6249886;22;45298;-80
2023/01/27 07:47:26;;;;;;;;;7.00;3.75;;;;;7.74;64.50;101955.38;6277875;22;45392;-80
2023/01/27 07:49:51;;;;;;;;;6.00;4.00;;;;;7.63;64.71;101940.31;6277606;22;45315;-79
2023/01/27 07:52:17;;;;;;;;;6.00;4.25;;;;;7.73;64.99;101958.91;6277489;22;45353;-80
2023/01/27 07:54:42;;;;;;;;;3.50;3.00;;;;;7.59;64.43;101936.78;6250784;22;45317;-80
2023/01/27 07:57:08;;;;;;;;;2.00;2.00;;;;;7.49;65.03;101924.41;6278622;22;45268;-80
2023/01/27 07:59:33;;;;;;;;;2.00;2.00;;;;;7.65;64.60;101958.06;6250154;22;45531;-80
2023/01/27 08:01:58;;;;;;;;;3.25;2.00;;;;;7.56;64.88;101942.97;6248774;22;47116;-80
2023/01/27 08:04:24;;;;;;;;;4.50;4.25;;;;;7.44;64.79;101929.69;6276332;22;45343;-80
2023/01/27 08:06:49;;;;;;;;;6.25;4.00;;;;;7.53;65.28;101942.09;6248757;22;45248;-79
2023/01/27 08:09:15;;;;;;;;;6.50;3.00;;;;;7.43;64.88;101919.94;6277629;22;45244;-79
2023/01/27 08:11:40;;;;;;;;;7.75;3.75;;;;;7.60;65.13;101970.41;6249798;22;46246;-79
2023/01/27 08:14:05;;;;;;;;;4.25;3.75;;;;;7.26;64.89;101919.09;6273878;22;45155;-79
2023/01/27 08:16:31;;;;;;;;;4.25;4.25;;;;;7.39;65.17;101953.59;6277116;22;45202;-79
2023/01/27 08:18:56;;;;;;;;;5.75;4.25;;;;;7.26;65.79;101927.06;6249633;22;45446;-79
2023/01/27 08:21:37;;;;;;;;;6.00;3.25;;;;;7.65;65.75;101986.38;5108093;27;45584;-65
2023/01/27 08:24:02;;;;;;;;;6.00;5.00;;;;;7.50;65.56;101947.41;5092669;27;45403;-65
2023/01/27 08:26:28;;;;;;;;;2.00;1.00;;;;;7.74;65.60;101983.72;5094082;27;45523;-65
2023/01/27 08:28:53;;;;;;;;;4.00;4.00;;;;;7.71;65.81;101973.97;5094496;27;45256;-65
2023/01/27 08:31:19;;;;;;;;;5.00;5.00;;;;;7.71;65.68;101967.78;5092239;27;46243;-65
2023/01/27 08:33:49;;;;;;;;;8.50;6.00;;;;;7.83;65.49;101982.81;5075431;27;45353;-65
2023/01/27 08:36:16;;;;;;;;;4.25;4.25;;;;;7.85;65.76;101986.34;5071133;27;45783;-66
2023/01/27 08:38:43;;;;;;;;;6.00;6.00;;;;;7.87;65.40;101987.22;5090180;27;45422;-63
2023/01/27 08:41:14;;;;;;;;;5.00;4.25;;;;;7.83;65.75;101989.00;5084430;27;48040;-63
2023/01/27 08:43:40;;;;;;;;;8.75;8.75;;;;;7.93;65.25;102000.53;5085084;27;45786;-63
2023/01/27 08:46:09;;;;;;;;;6.00;4.25;;;;;7.87;64.96;101984.56;5080244;27;45410;-63
2023/01/27 08:48:36;;;;;;;;;4.00;4.00;;;;;7.91;64.76;101992.56;5084106;27;45745;-63
2023/01/27 08:51:04;;;;;;;;;7.00;7.00;;;;;7.90;64.64;101995.22;5083293;27;46259;-63
2023/01/27 08:53:30;;;;;;;;;4.50;4.50;;;;;7.85;65.00;101981.03;5085499;27;45570;-63
2023/01/27 08:55:57;;;;;;;;;5.75;5.75;;;;;7.88;65.07;101999.66;5092929;27;45519;-63
2023/01/27 08:58:23;;;;;;;;;7.00;6.00;;;;;7.81;64.55;101992.59;5087011;27;45558;-63
2023/01/27 09:00:49;;;;;;;;;5.00;4.25;;;;;7.75;64.22;101999.69;5084667;27;45743;-63
2023/01/27 09:03:15;;;;;;;;;8.25;6.50;;;;;7.69;64.65;102002.31;5084374;27;45587;-65
2023/01/27 09:05:40;;;;;;;;;9.25;6.00;;;;;7.53;64.53;101993.44;5089824;27;45472;-65
2023/01/27 09:08:07;;;;;;;;;7.00;6.50;;;;;7.58;64.70;102014.72;5089069;27;45527;-65
2023/01/27 09:10:37;;;;;;;;;6.50;5.00;;;;;7.52;64.63;102005.00;5087198;27;47375;-65
2023/01/27 09:13:03;;;;;;;;;1.50;1.00;;;;;7.53;64.51;102011.19;5089334;27;45840;-65
2023/01/27 09:15:28;;;;;;;;;7.50;6.50;;;;;7.26;64.56;101967.75;5088486;27;45524;-65
2023/01/27 09:17:54;;;;;;;;;5.00;5.00;;;;;7.47;64.59;102012.06;5090675;27;45479;-65
2023/01/27 09:20:19;;;;;;;;;4.50;4.50;;;;;7.42;64.86;102006.75;5089556;27;48396;-65
2023/01/27 09:22:44;;;;;;;;;4.50;3.50;;;;;7.47;64.66;102020.03;5090362;27;45338;-65
2023/01/27 09:25:15;;;;;;;;;6.75;6.25;;;;;7.40;64.45;102015.59;5090910;27;45499;-65
2023/01/27 09:27:42;;;;;;;;;10.25;6.00;;;;;7.30;64.10;102003.19;5080792;27;45501;-65
2023/01/27 09:30:14;;;;;;;;;8.75;6.00;;;;;7.35;64.38;102012.03;5082942;27;45465;-65
2023/01/27 09:32:40;;;;;;;;;7.50;6.50;;;;;7.37;63.91;102013.81;5075367;27;45687;-65
2023/01/27 09:35:06;;;;;;;;;8.00;6.50;;;;;7.36;64.16;102004.06;5065660;27;45500;-65
2023/01/27 09:37:38;;;;;;;;;6.75;5.50;;;;;7.47;63.98;102021.78;5080213;27;45552;-66
2023/01/27 09:40:14;;;;;;;;;10.25;6.00;;;;;7.41;63.68;102031.53;5070143;27;45691;-66
2023/01/27 09:43:05;;;;;;;;;7.50;5.00;;;;;7.37;63.62;102039.50;5078690;27;45455;-66
2023/01/27 09:45:31;;;;;;;;;6.00;6.00;;;;;7.32;63.75;102034.19;5071037;27;45497;-65
2023/01/27 09:48:05;;;;;;;;;5.75;5.75;;;;;7.26;63.66;102031.50;5072054;27;45636;-66
2023/01/27 09:51:11;;;;;;;;;5.75;5.00;;;;;7.30;63.51;102033.31;5071751;27;45503;-65
2023/01/27 09:53:37;;;;;;;;;5.75;5.25;;;;;7.31;63.87;102037.72;5071019;27;46337;-65
2023/01/27 09:56:14;;;;;;;;;7.25;6.00;;;;;7.29;63.51;102039.50;5075640;27;45598;-66
2023/01/27 09:58:42;;;;;;;;;8.25;7.75;;;;;7.31;63.80;102047.47;5075184;28;45366;-66
2023/01/27 10:01:20;;;;;;;;;9.50;8.00;;;;;7.27;63.56;102043.91;5067817;27;46106;-65
2023/01/27 10:03:48;;;;;;;;;4.75;4.75;;;;;7.23;62.95;102044.78;5080846;28;45338;-66
2023/01/27 10:06:41;;;;;;;;;7.00;6.50;;;;;7.21;63.64;102036.81;5074876;27;45417;-66
2023/01/27 10:09:57;;;;;;;;;7.25;5.00;;;;;7.20;63.15;102039.44;5065795;28;46137;-65
2023/01/27 10:12:29;;;;;;;;;11.75;5.75;;;;;7.16;63.16;102035.03;5055836;27;47716;-65
2023/01/27 10:15:19;;;;;;;;;7.00;7.00;;;;;7.17;63.24;102045.66;5071551;27;45501;-66
2023/01/27 10:18:00;;;;;;;;;10.75;6.75;;;;;7.13;62.50;102032.38;5082892;27;45437;-65
2023/01/27 10:20:46;;;;;;;;;6.75;5.75;;;;;7.03;63.53;102021.72;5071323;27;45465;-65
2023/01/27 10:23:43;;;;;;;;;28.25;24.00;;;;;7.15;63.25;102035.91;5073439;27;45914;-65
2023/01/27 10:26:24;;;;;;;;;7.00;7.00;;;;;7.11;63.49;102027.03;5071614;27;45769;-65
2023/01/27 10:28:59;;;;;;;;;5.75;5.75;;;;;7.14;62.80;102028.84;5066121;27;45336;-65
2023/01/27 10:31:42;;;;;;;;;9.50;6.00;;;;;7.17;63.51;102036.81;5067146;28;45504;-62
2023/01/27 10:34:26;;;;;;;;;3.00;3.00;;;;;7.23;62.85;102052.75;5063128;27;46480;-64
2023/01/27 10:37:16;;;;;;;;;7.00;6.50;;;;;7.20;62.45;102042.09;5075088;28;45839;-65
2023/01/27 10:39:59;;;;;;;;;7.75;6.00;;;;;7.04;62.99;102027.91;5074367;27;45430;-65
2023/01/27 10:42:53;;;;;;;;;2.00;2.00;;;;;7.08;62.63;102028.81;5071377;27;45840;-65
2023/01/27 10:45:36;;;;;;;;;10.00;7.75;;;;;7.12;63.20;102031.50;5064606;27;47417;-65
2023/01/27 10:48:10;;;;;;;;;5.00;5.00;;;;;7.18;62.65;102034.16;5072871;28;45768;-65
2023/01/27 10:50:40;;;;;;;;;7.50;6.00;;;;;7.11;62.74;102045.63;5062599;28;45589;-65
2023/01/27 10:53:13;;;;;;;;;11.75;8.25;;;;;7.17;62.63;102053.63;5072661;27;45525;-65
2023/01/27 10:56:06;;;;;;;;;8.50;7.00;;;;;7.13;62.48;102049.16;5073282;27;45395;-65
2023/01/27 10:58:44;;;;;;;;;8.25;7.50;;;;;7.08;63.03;102039.44;5071418;27;45502;-65
2023/01/27 11:01:15;;;;;;;;;9.50;7.00;;;;;7.14;62.54;102052.75;5062368;28;45489;-65
2023/01/27 11:03:48;;;;;;;;;6.50;6.50;;;;;7.09;62.69;102031.47;5072766;27;45545;-65
2023/01/27 11:06:19;;;;;;;;;7.50;6.00;;;;;7.09;62.69;102030.59;5078013;27;45808;-65
2023/01/27 11:08:49;;;;;;;;;4.50;0.75;;;;;7.17;63.19;102047.44;5070937;27;45944;-65
2023/01/27 11:14:11;;;;;;;;;12.75;8.50;;;;;7.23;62.72;102050.09;5070003;27;45358;-65
2023/01/27 11:16:41;;;;;;;;;7.25;7.00;;;;;7.14;62.79;102036.81;5057645;28;46139;-65
2023/01/27 11:19:21;;;;;;;;;6.50;5.25;;;;;7.12;62.57;102031.50;5070304;27;45316;-65
2023/01/27 11:21:50;;;;;;;;;7.50;7.50;;;;;7.19;62.40;102041.22;5073080;27;45737;-65
2023/01/27 11:24:46;;;;;;;;;6.75;6.50;;;;;7.21;62.63;102041.25;5071972;27;45499;-65
2023/01/27 11:27:36;;;;;;;;;9.75;7.00;;;;;7.17;63.23;102034.16;5031240;28;48262;-65
2023/01/27 11:30:15;;;;;;;;;7.25;6.00;;;;;7.24;62.73;102026.19;5071049;27;45477;-65
2023/01/27 11:33:01;;;;;;;;;8.00;8.00;;;;;7.30;63.40;102028.00;5071020;28;45391;-65
2023/01/27 11:35:26;;;;;;;;;11.25;7.50;;;;;7.28;63.11;102016.44;5072482;27;46562;-65
2023/01/27 11:37:52;;;;;;;;;11.75;9.50;;;;;7.35;62.83;102018.25;5064366;28;45491;-65
2023/01/27 11:40:40;;;;;;;;;8.00;8.00;;;;;7.30;63.16;102009.41;5075434;27;45350;-65
2023/01/27 11:43:05;;;;;;;;;10.25;9.75;;;;;7.23;62.54;101996.97;5058138;28;45544;-65
2023/01/27 11:45:34;;;;;;;;;13.00;7.25;;;;;7.26;62.74;101993.44;5075815;27;45752;-65
2023/01/27 11:48:04;;;;;;;;;12.00;11.00;;;;;7.26;62.96;101996.97;5073292;28;45454;-65
2023/01/27 11:50:33;;;;;;;;;6.75;5.75;;;;;7.30;63.08;102000.53;5063545;27;45794;-65
2023/01/27 11:53:11;;;;;;;;;8.00;8.00;;;;;7.28;62.92;101989.91;5066015;27;45888;-65
2023/01/27 11:55:41;;;;;;;;;9.00;7.00;;;;;7.39;62.87;102012.06;5070210;27;45868;-65
2023/01/27 11:58:09;;;;;;;;;10.00;9.00;;;;;7.42;62.78;102019.16;5057104;27;46214;-66
2023/01/27 12:00:44;;;;;;;;;11.00;8.00;;;;;7.29;62.37;102007.63;5069374;27;45613;-66
2023/01/27 12:03:32;;;;;;;;;14.00;10.75;;;;;7.23;62.59;102000.53;5077723;28;45391;-66
2023/01/27 12:06:10;;;;;;;;;10.25;8.25;;;;;7.26;62.98;102004.06;5074863;27;45391;-66
2023/01/27 12:08:45;;;;;;;;;11.50;9.00;;;;;7.36;62.63;102012.03;5061605;28;45626;-65
2023/01/27 12:11:16;;;;;;;;;15.25;8.75;;;;;7.32;62.05;102023.56;5070082;28;45973;-65
2023/01/27 12:13:53;;;;;;;;;10.00;7.50;;;;;7.32;62.64;102015.59;5061037;28;45677;-65